createdAt,value
2023-05-10T00:02:36.254Z,6.28
2023-05-10T00:05:39.530Z,6.43
2023-05-10T00:08:42.376Z,6.44
2023-05-10T00:11:45.370Z,6.47
2023-05-10T00:14:47.980Z,6.38
2023-05-10T00:17:51.080Z,6.32
2023-05-10T00:20:53.741Z,6.17
2023-05-10T00:23:56.884Z,6.10
2023-05-10T00:26:59.613Z,5.92
2023-05-10T00:30:02.633Z,5.81
2023-05-10T00:33:06.634Z,5.90
2023-05-10T00:36:09.854Z,5.86
2023-05-10T00:39:13.361Z,5.87
2023-05-10T00:42:16.315Z,5.83
2023-05-10T00:45:20.231Z,5.79
2023-05-10T00:48:23.455Z,5.74
2023-05-10T00:51:26.360Z,5.68
2023-05-10T00:54:29.551Z,5.66
2023-05-10T00:57:32.425Z,5.59
2023-05-10T01:00:36.629Z,5.54
2023-05-10T01:03:41.019Z,5.52
2023-05-10T01:06:44.969Z,5.50
2023-05-10T01:09:48.089Z,5.44
2023-05-10T01:12:52.274Z,5.41
2023-05-10T01:15:55.713Z,5.47
2023-05-10T01:18:59.040Z,5.53
2023-05-10T01:22:38.982Z,5.58
2023-05-10T01:25:56.960Z,5.58
2023-05-10T01:29:10.868Z,5.52
2023-05-10T01:32:20.547Z,5.50
2023-05-10T01:35:35.444Z,5.44
2023-05-10T01:38:41.481Z,5.55
2023-05-10T01:41:52.488Z,5.61
2023-05-10T01:45:21.080Z,5.73
2023-05-10T01:48:26.086Z,5.65
2023-05-10T01:51:37.809Z,5.70
2023-05-10T01:54:45.953Z,5.80
2023-05-10T01:57:53.691Z,5.86
2023-05-10T02:00:59.392Z,5.94
2023-05-10T02:04:03.987Z,5.91
2023-05-10T02:07:08.099Z,6.12
2023-05-10T02:10:12.752Z,6.27
2023-05-10T02:13:17.130Z,6.31
2023-05-10T02:16:24.819Z,6.24
2023-05-10T02:19:30.032Z,6.48
2023-05-10T02:22:33.916Z,6.53
2023-05-10T02:25:38.480Z,6.89
2023-05-10T02:28:43.261Z,6.82
2023-05-10T02:31:47.025Z,6.75
2023-05-10T02:34:52.955Z,6.71
2023-05-10T02:37:57.595Z,6.53
2023-05-10T02:41:01.069Z,6.42
2023-05-10T02:44:07.892Z,6.33
2023-05-10T02:47:10.617Z,6.20
2023-05-10T02:50:14.169Z,6.19
2023-05-10T02:53:22.983Z,6.09
2023-05-10T02:56:35.464Z,6.00
2023-05-10T02:59:38.207Z,5.90
2023-05-10T03:02:41.664Z,5.77
2023-05-10T03:05:44.949Z,5.74
2023-05-10T03:08:48.097Z,5.76
2023-05-10T03:12:02.029Z,5.73
2023-05-10T03:15:13.016Z,5.82
2023-05-10T03:18:33.045Z,5.82
2023-05-10T03:21:39.155Z,5.83
2023-05-10T03:24:44.281Z,5.93
2023-05-10T03:27:48.785Z,5.86
2023-05-10T03:30:54.014Z,6.02
2023-05-10T03:33:57.052Z,6.29
2023-05-10T03:37:00.166Z,6.49
2023-05-10T03:40:04.642Z,6.84
2023-05-10T03:43:08.236Z,7.00
2023-05-10T03:46:11.503Z,7.06
2023-05-10T03:49:14.439Z,7.00
2023-05-10T03:52:17.434Z,7.17
2023-05-10T03:55:20.174Z,7.14
2023-05-10T03:58:23.295Z,7.26
2023-05-10T04:01:26.158Z,7.31
2023-05-10T04:04:29.296Z,7.42
2023-05-10T04:07:31.994Z,7.53
2023-05-10T04:10:35.344Z,7.65
2023-05-10T04:13:39.232Z,7.81
2023-05-10T04:16:42.278Z,7.97
2023-05-10T04:19:44.987Z,8.12
2023-05-10T04:22:47.865Z,8.23
2023-05-10T04:25:50.446Z,8.29
2023-05-10T04:28:53.374Z,8.39
2023-05-10T04:31:56.326Z,8.62
2023-05-10T04:34:59.260Z,9.57
2023-05-10T04:38:01.948Z,10.72
2023-05-10T04:41:09.345Z,11.83
2023-05-10T04:44:12.015Z,13.27
2023-05-10T04:47:15.008Z,14.15
2023-05-10T04:50:18.668Z,15.10
2023-05-10T04:53:22.093Z,15.65
2023-05-10T04:56:24.760Z,15.75
2023-05-10T04:59:27.742Z,15.52
2023-05-10T05:02:30.634Z,16.05
2023-05-10T05:05:33.688Z,16.31
2023-05-10T05:08:36.562Z,17.36
2023-05-10T05:11:39.575Z,16.67
2023-05-10T05:14:42.310Z,17.90
2023-05-10T05:17:45.669Z,16.17
2023-05-10T05:20:48.384Z,17.99
2023-05-10T05:23:51.310Z,17.67
2023-05-10T05:26:54.048Z,18.75
2023-05-10T05:29:57.765Z,19.09
2023-05-10T05:33:00.465Z,19.95
2023-05-10T05:36:05.919Z,18.44
2023-05-10T05:39:08.887Z,19.35
2023-05-10T05:42:12.810Z,19.54
2023-05-10T05:45:15.782Z,19.62
2023-05-10T05:48:18.872Z,19.84
2023-05-10T05:51:21.569Z,20.63
2023-05-10T05:54:24.404Z,20.62
2023-05-10T05:57:27.719Z,21.01
2023-05-10T06:00:30.703Z,21.36
2023-05-10T06:03:33.883Z,20.39
2023-05-10T06:06:36.526Z,21.71
2023-05-10T06:09:39.531Z,20.14
2023-05-10T06:12:42.664Z,20.54
2023-05-10T06:15:45.662Z,22.05
2023-05-10T06:18:48.335Z,22.81
2023-05-10T06:21:53.172Z,22.69
2023-05-10T06:24:56.675Z,22.66
2023-05-10T06:27:59.651Z,22.46
2023-05-10T06:31:02.933Z,22.72
2023-05-10T06:34:05.984Z,21.68
2023-05-10T06:37:08.643Z,21.57
2023-05-10T06:40:11.918Z,22.29
2023-05-10T06:43:14.661Z,23.30
2023-05-10T06:46:17.658Z,21.28
2023-05-10T06:49:20.339Z,22.19
2023-05-10T06:52:23.255Z,22.92
2023-05-10T06:55:46.023Z,22.46
2023-05-10T06:58:50.062Z,23.25
2023-05-10T07:01:52.771Z,24.09
2023-05-10T07:04:55.895Z,22.07
2023-05-10T07:07:58.600Z,24.49
2023-05-10T07:11:08.400Z,24.95
2023-05-10T07:14:11.111Z,23.28
2023-05-10T07:17:14.099Z,24.17
2023-05-10T07:20:16.793Z,25.59
2023-05-10T07:23:20.469Z,25.17
2023-05-10T07:26:23.174Z,23.87
2023-05-10T07:29:26.625Z,24.94
2023-05-10T07:32:29.355Z,23.02
2023-05-10T07:35:32.746Z,23.69
2023-05-10T07:38:35.331Z,26.10
2023-05-10T07:41:38.774Z,25.40
2023-05-10T07:44:41.416Z,25.44
2023-05-10T07:47:44.373Z,25.37
2023-05-10T07:50:46.986Z,26.10
2023-05-10T07:53:50.036Z,24.07
2023-05-10T07:56:52.715Z,23.41
2023-05-10T07:59:55.581Z,25.91
2023-05-10T08:02:58.251Z,26.50
2023-05-10T08:06:01.328Z,25.28
2023-05-10T08:09:03.983Z,25.56
2023-05-10T08:12:07.299Z,22.62
2023-05-10T08:15:10.474Z,22.28
2023-05-10T08:18:13.529Z,19.11
2023-05-10T08:21:16.678Z,19.89
2023-05-10T08:24:19.624Z,17.98
2023-05-10T08:27:22.257Z,17.67
2023-05-10T08:30:25.221Z,17.11
2023-05-10T08:33:27.896Z,17.23
2023-05-10T08:36:30.948Z,17.03
2023-05-10T08:39:36.736Z,17.20
2023-05-10T08:42:43.813Z,16.86
2023-05-10T08:45:47.993Z,16.88
2023-05-10T08:48:53.118Z,16.84
2023-05-10T08:51:56.986Z,17.39
2023-05-10T08:55:00.089Z,20.12
2023-05-10T08:58:02.904Z,18.88
2023-05-10T09:01:09.842Z,20.58
2023-05-10T09:04:13.690Z,18.99
2023-05-10T09:07:17.656Z,18.76
2023-05-10T09:10:20.689Z,18.32
2023-05-10T09:13:24.976Z,18.77
2023-05-10T09:16:27.779Z,19.26
2023-05-10T09:19:30.811Z,19.13
2023-05-10T09:22:34.121Z,19.06
2023-05-10T09:25:39.603Z,19.27
2023-05-10T09:28:59.372Z,19.05
2023-05-10T09:32:02.349Z,19.23
2023-05-10T09:35:12.634Z,18.92
2023-05-10T09:38:15.560Z,18.94
2023-05-10T09:41:23.347Z,18.50
2023-05-10T09:44:27.296Z,18.78
2023-05-10T09:47:29.996Z,18.32
2023-05-10T09:50:32.994Z,19.03
2023-05-10T09:53:35.565Z,18.68
2023-05-10T09:56:41.094Z,18.97
2023-05-10T09:59:44.394Z,18.71
2023-05-10T10:02:57.127Z,18.54
2023-05-10T10:06:01.114Z,18.69
2023-05-10T10:09:04.113Z,19.35
2023-05-10T10:12:07.278Z,19.07
2023-05-10T10:15:10.625Z,19.38
2023-05-10T10:18:16.700Z,19.55
2023-05-10T10:21:19.861Z,19.32
2023-05-10T10:24:22.771Z,18.88
2023-05-10T10:28:00.681Z,19.49
2023-05-10T10:31:21.173Z,19.57
2023-05-10T10:34:29.181Z,18.81
2023-05-10T10:37:46.297Z,19.16
2023-05-10T10:40:49.023Z,19.40
2023-05-10T10:44:23.797Z,19.03
2023-05-10T10:47:33.939Z,18.67
2023-05-10T10:50:46.268Z,18.66
2023-05-10T10:53:49.849Z,18.66
2023-05-10T10:57:20.159Z,18.64
2023-05-10T11:00:25.948Z,19.11
2023-05-10T11:03:29.973Z,19.75
2023-05-10T11:06:37.164Z,19.31
2023-05-10T11:09:41.182Z,19.30
2023-05-10T11:13:13.309Z,19.09
2023-05-10T11:16:26.589Z,18.60
2023-05-10T11:19:29.363Z,18.61
2023-05-10T11:22:51.326Z,18.72
2023-05-10T11:25:55.026Z,18.92
2023-05-10T11:28:59.486Z,19.32
2023-05-10T11:32:02.109Z,19.26
2023-05-10T11:35:12.665Z,18.58
2023-05-10T11:38:16.096Z,18.92
2023-05-10T11:41:22.923Z,19.16
2023-05-10T11:44:31.342Z,18.92
2023-05-10T11:47:36.722Z,19.43
2023-05-10T11:50:39.479Z,19.52
2023-05-10T11:53:42.967Z,18.86
2023-05-10T11:56:46.534Z,19.01
2023-05-10T11:59:55.378Z,19.19
2023-05-10T12:02:58.338Z,19.43
2023-05-10T12:06:02.155Z,19.70
2023-05-10T12:09:09.203Z,19.91
2023-05-10T12:12:18.098Z,19.74
2023-05-10T12:15:23.031Z,19.96
2023-05-10T12:18:26.506Z,19.80
2023-05-10T12:21:31.822Z,19.67
2023-05-10T12:24:36.517Z,19.90
2023-05-10T12:27:44.281Z,19.67
2023-05-10T12:30:47.203Z,19.11
2023-05-10T12:33:50.471Z,18.73
2023-05-10T12:36:56.908Z,18.55
2023-05-10T12:39:59.509Z,18.79
2023-05-10T12:43:02.585Z,18.44
2023-05-10T12:46:06.950Z,18.63
2023-05-10T12:49:10.064Z,18.62
2023-05-10T12:52:12.844Z,18.83
2023-05-10T12:55:16.091Z,18.65
2023-05-10T12:58:34.418Z,18.87
2023-05-10T13:01:38.844Z,18.46
2023-05-10T13:04:42.869Z,18.44
2023-05-10T13:07:46.245Z,18.48
2023-05-10T13:10:49.344Z,18.94
2023-05-10T13:13:53.635Z,19.28
2023-05-10T13:16:56.547Z,18.92
2023-05-10T13:19:59.466Z,18.62
2023-05-10T13:23:02.175Z,18.45
2023-05-10T13:26:05.045Z,18.63
2023-05-10T13:29:08.202Z,19.09
2023-05-10T13:32:11.240Z,18.94
2023-05-10T13:35:13.901Z,18.78
2023-05-10T13:38:16.834Z,18.82
2023-05-10T13:41:19.447Z,18.73
2023-05-10T13:44:22.350Z,18.51
2023-05-10T13:47:25.061Z,18.44
2023-05-10T13:50:28.131Z,18.64
2023-05-10T13:53:30.946Z,18.79
2023-05-10T13:56:33.943Z,19.22
2023-05-10T13:59:36.515Z,19.58
2023-05-10T14:02:39.722Z,19.69
2023-05-10T14:05:42.707Z,19.61
2023-05-10T14:08:45.771Z,19.99
2023-05-10T14:11:48.751Z,20.53
2023-05-10T14:14:51.374Z,19.93
2023-05-10T14:17:54.428Z,20.09
2023-05-10T14:20:57.256Z,19.86
2023-05-10T14:24:00.192Z,19.69
2023-05-10T14:27:02.792Z,20.00
2023-05-10T14:30:06.358Z,19.75
2023-05-10T14:33:09.095Z,19.69
2023-05-10T14:36:12.018Z,19.75
2023-05-10T14:39:14.749Z,20.08
2023-05-10T14:42:17.832Z,20.05
2023-05-10T14:45:20.951Z,19.94
2023-05-10T14:48:23.860Z,19.44
2023-05-10T14:51:26.476Z,19.07
2023-05-10T14:54:29.421Z,19.13
2023-05-10T14:57:32.330Z,18.98
2023-05-10T15:00:35.317Z,19.40
2023-05-10T15:03:38.744Z,19.51
2023-05-10T15:06:42.605Z,19.64
2023-05-10T15:09:45.991Z,19.52
2023-05-10T15:12:49.145Z,19.43
2023-05-10T15:15:51.778Z,19.61
2023-05-10T15:18:54.865Z,19.40
2023-05-10T15:21:57.492Z,20.04
2023-05-10T15:25:00.403Z,20.00
2023-05-10T15:28:03.756Z,19.94
2023-05-10T15:31:06.840Z,19.33
2023-05-10T15:34:09.495Z,19.15
2023-05-10T15:37:12.615Z,19.13
2023-05-10T15:40:15.501Z,19.02
2023-05-10T15:43:18.408Z,18.88
2023-05-10T15:46:21.080Z,18.79
2023-05-10T15:49:24.079Z,18.70
2023-05-10T15:52:27.310Z,18.56
2023-05-10T15:55:30.214Z,18.39
2023-05-10T15:58:32.852Z,18.08
2023-05-10T16:01:35.823Z,18.10
2023-05-10T16:04:39.166Z,18.01
2023-05-10T16:07:42.437Z,18.18
2023-05-10T16:10:45.430Z,18.10
2023-05-10T16:13:48.063Z,18.05
2023-05-10T16:16:51.625Z,18.02
2023-05-10T16:19:54.493Z,18.03
2023-05-10T16:22:57.374Z,17.92
2023-05-10T16:26:00.145Z,17.89
2023-05-10T16:29:03.259Z,17.79
2023-05-10T16:32:05.955Z,17.86
2023-05-10T16:35:09.446Z,17.74
2023-05-10T16:38:12.065Z,17.72
2023-05-10T16:41:15.043Z,17.81
2023-05-10T16:44:20.162Z,17.79
2023-05-10T16:47:26.848Z,17.72
2023-05-10T16:50:29.826Z,17.70
2023-05-10T16:53:32.752Z,17.62
2023-05-10T16:56:35.429Z,17.42
2023-05-10T16:59:38.330Z,17.36
2023-05-10T17:02:42.007Z,17.27
2023-05-10T17:05:44.966Z,17.12
2023-05-10T17:08:47.622Z,17.06
2023-05-10T17:11:50.509Z,16.92
2023-05-10T17:14:53.395Z,16.82
2023-05-10T17:17:56.481Z,16.80
2023-05-10T17:20:59.422Z,16.70
2023-05-10T17:24:02.693Z,16.54
2023-05-10T17:27:05.386Z,16.51
2023-05-10T17:30:08.821Z,16.43
2023-05-10T17:33:11.456Z,16.32
2023-05-10T17:36:14.343Z,16.25
2023-05-10T17:39:16.995Z,16.06
2023-05-10T17:42:20.875Z,16.03
2023-05-10T17:45:23.670Z,15.84
2023-05-10T17:48:26.806Z,15.84
2023-05-10T17:51:29.623Z,15.74
2023-05-10T17:54:32.556Z,15.67
2023-05-10T17:57:38.084Z,15.60
2023-05-10T18:00:41.071Z,15.56
2023-05-10T18:03:43.977Z,15.45
2023-05-10T18:06:46.639Z,15.31
2023-05-10T18:09:49.767Z,15.28
2023-05-10T18:12:52.646Z,15.23
2023-05-10T18:15:55.683Z,15.09
2023-05-10T18:18:58.489Z,15.15
2023-05-10T18:22:01.683Z,14.99
2023-05-10T18:25:05.046Z,15.01
2023-05-10T18:28:08.652Z,15.01
2023-05-10T18:31:12.479Z,15.04
2023-05-10T18:34:15.869Z,15.00
2023-05-10T18:37:19.015Z,14.92
2023-05-10T18:40:22.299Z,14.89
2023-05-10T18:43:25.341Z,14.73
2023-05-10T18:46:28.904Z,14.68
2023-05-10T18:49:32.489Z,14.58
2023-05-10T18:52:36.961Z,14.44
2023-05-10T18:55:40.097Z,14.39
2023-05-10T18:58:43.388Z,14.36
2023-05-10T19:01:46.363Z,14.18
2023-05-10T19:04:50.835Z,13.97
2023-05-10T19:07:53.906Z,13.96
2023-05-10T19:10:57.240Z,13.80
2023-05-10T19:14:01.400Z,13.62
2023-05-10T19:17:04.834Z,13.84
2023-05-10T19:20:10.595Z,13.85
2023-05-10T19:23:13.944Z,13.76
2023-05-10T19:26:17.086Z,13.81
2023-05-10T19:29:21.258Z,13.75
2023-05-10T19:32:24.589Z,13.92
2023-05-10T19:35:27.943Z,13.96
2023-05-10T19:38:30.988Z,13.87
2023-05-10T19:41:34.101Z,14.02
2023-05-10T19:44:37.068Z,14.09
2023-05-10T19:47:42.105Z,14.19
2023-05-10T19:50:45.490Z,14.18
2023-05-10T19:53:48.893Z,14.20
2023-05-10T19:56:51.992Z,14.20
2023-05-10T19:59:55.181Z,14.25
2023-05-10T20:02:58.466Z,14.30
2023-05-10T20:06:02.278Z,14.34
2023-05-10T20:09:05.265Z,14.46
2023-05-10T20:12:08.867Z,14.43
2023-05-10T20:15:11.832Z,14.31
2023-05-10T20:18:15.141Z,14.45
2023-05-10T20:21:17.860Z,14.43
2023-05-10T20:24:20.945Z,14.39
2023-05-10T20:27:23.774Z,14.25
2023-05-10T20:30:27.090Z,14.28
2023-05-10T20:33:30.674Z,14.15
2023-05-10T20:36:33.864Z,14.07
2023-05-10T20:39:36.810Z,14.03
2023-05-10T20:42:40.167Z,13.96
2023-05-10T20:45:43.122Z,13.87
2023-05-10T20:48:46.475Z,13.77
2023-05-10T20:51:49.289Z,13.69
2023-05-10T20:54:52.209Z,13.61
2023-05-10T20:57:54.847Z,13.50
2023-05-10T21:00:57.855Z,13.45
2023-05-10T21:04:00.438Z,13.43
2023-05-10T21:07:03.352Z,13.24
2023-05-10T21:10:08.161Z,13.01
2023-05-10T21:13:11.055Z,12.81
2023-05-10T21:16:13.776Z,12.70
2023-05-10T21:19:17.376Z,12.61
2023-05-10T21:22:20.005Z,12.49
2023-05-10T21:25:23.287Z,12.36
2023-05-10T21:28:25.942Z,12.41
2023-05-10T21:31:28.956Z,12.46
2023-05-10T21:34:31.600Z,12.49
2023-05-10T21:37:34.516Z,12.48
2023-05-10T21:40:39.337Z,12.36
2023-05-10T21:43:42.804Z,12.33
2023-05-10T21:46:45.450Z,12.35
2023-05-10T21:49:48.399Z,12.29
2023-05-10T21:52:51.183Z,12.26
2023-05-10T21:55:56.247Z,12.39
2023-05-10T21:58:58.874Z,12.39
2023-05-10T22:02:02.065Z,12.43
2023-05-10T22:05:05.419Z,12.23
2023-05-10T22:08:08.216Z,12.24
2023-05-10T22:11:11.136Z,12.13
2023-05-10T22:14:13.672Z,11.99
2023-05-10T22:17:16.794Z,11.87
2023-05-10T22:20:19.836Z,11.86
2023-05-10T22:23:22.948Z,11.69
2023-05-10T22:26:26.134Z,11.62
2023-05-10T22:29:32.444Z,11.66
2023-05-10T22:32:35.154Z,11.69
2023-05-10T22:35:38.140Z,11.67
2023-05-10T22:38:40.893Z,11.54
2023-05-10T22:41:43.792Z,11.73
2023-05-10T22:44:46.665Z,11.54
2023-05-10T22:47:49.637Z,11.52
2023-05-10T22:50:52.264Z,11.39
2023-05-10T22:53:55.198Z,11.36
2023-05-10T22:56:58.097Z,11.23
2023-05-10T23:00:01.266Z,11.62
2023-05-10T23:03:06.578Z,11.67
2023-05-10T23:06:09.871Z,11.59
2023-05-10T23:09:12.671Z,11.56
2023-05-10T23:12:15.692Z,11.43
2023-05-10T23:15:18.390Z,11.32
2023-05-10T23:18:21.333Z,11.27
2023-05-10T23:21:25.264Z,11.30
2023-05-10T23:24:28.291Z,11.36
2023-05-10T23:27:30.967Z,11.35
2023-05-10T23:30:33.908Z,11.25
2023-05-10T23:33:36.480Z,11.09
2023-05-10T23:36:39.480Z,11.04
2023-05-10T23:39:42.086Z,10.94
2023-05-10T23:42:45.156Z,11.06
2023-05-10T23:45:58.182Z,11.17
2023-05-10T23:49:01.272Z,11.26
2023-05-10T23:52:04.252Z,11.30
2023-05-10T23:55:07.739Z,11.15
2023-05-10T23:58:10.333Z,11.06
